Time;durP1;ratioP1;P1;durP2;ratioP2;P2;SDS_P1;SDS_P2;PMS_P1;PMS_P2;Temp;Humidity;BMP_temperature;BMP_pressure;BME280_temperature;BME280_humidity;BME280_pressure;Samples;Min_cycle;Max_cycle;Signal;HPM_P1;HPM_P2
2023/10/15 00:00:40;;;;;;;11.43;3.67;;;5.60;99.90;;;;;;5015266;28;20648;-71
2023/10/15 00:03:07;;;;;;;9.87;3.37;;;5.60;99.90;;;;;;5031945;28;20289;-71
2023/10/15 00:05:32;;;;;;;12.77;3.47;;;5.60;99.90;;;;;;5014557;28;20219;-71
2023/10/15 00:07:58;;;;;;;11.53;3.47;;;5.50;99.90;;;;;;5012136;28;20185;-71
2023/10/15 00:10:26;;;;;;;15.87;2.73;;;5.50;99.90;;;;;;5020031;28;20180;-72
2023/10/15 00:12:53;;;;;;;13.30;3.20;;;5.50;99.90;;;;;;5020169;28;20258;-73
2023/10/15 00:15:20;;;;;;;9.07;3.43;;;5.50;99.90;;;;;;5012077;28;20560;-71
2023/10/15 00:17:53;;;;;;;8.13;3.17;;;5.50;99.90;;;;;;5014789;28;20651;-71
2023/10/15 00:20:21;;;;;;;11.97;3.70;;;5.40;99.90;;;;;;5024063;28;20215;-71
2023/10/15 00:22:49;;;;;;;8.07;3.43;;;5.40;99.90;;;;;;5022702;28;20290;-71
2023/10/15 00:25:16;;;;;;;6.23;3.23;;;5.40;99.90;;;;;;5024986;28;20247;-73
2023/10/15 00:27:42;;;;;;;8.43;3.50;;;5.40;99.90;;;;;;5013990;28;20188;-71
2023/10/15 00:30:19;;;;;;;18.10;4.90;;;5.30;99.90;;;;;;5017267;28;20279;-71
2023/10/15 00:32:45;;;;;;;9.77;3.17;;;5.30;99.90;;;;;;5019638;28;20208;-71
2023/10/15 00:35:19;;;;;;;10.93;3.30;;;5.30;99.90;;;;;;5016564;28;20195;-71
2023/10/15 00:38:19;;;;;;;6.93;3.07;;;5.20;99.90;;;;;;5020365;28;20270;-71
2023/10/15 00:40:41;;;;;;;9.60;3.80;;;5.20;99.90;;;;;;5029595;28;20210;-73
2023/10/15 00:43:07;;;;;;;7.53;3.30;;;5.20;99.90;;;;;;5025577;28;20200;-75
2023/10/15 00:45:44;;;;;;;7.97;3.17;;;5.20;99.90;;;;;;5020555;28;20180;-71
2023/10/15 00:48:22;;;;;;;5.80;2.50;;;5.10;99.90;;;;;;5016959;28;20315;-72
2023/10/15 00:50:48;;;;;;;8.40;2.50;;;5.20;99.90;;;;;;5014397;28;20187;-72
2023/10/15 00:53:26;;;;;;;6.10;2.57;;;5.20;99.90;;;;;;5024492;28;20192;-71
2023/10/15 00:55:52;;;;;;;5.63;2.40;;;5.20;99.90;;;;;;5014926;28;20186;-72
2023/10/15 00:58:31;;;;;;;8.17;2.53;;;5.10;99.90;;;;;;5015691;28;20185;-72
2023/10/15 01:03:54;;;;;;;8.07;2.40;;;5.10;99.90;;;;;;5021817;28;20256;-71
2023/10/15 01:06:30;;;;;;;6.47;2.30;;;5.10;99.90;;;;;;5031139;28;20669;-74
2023/10/15 01:09:08;;;;;;;11.97;2.50;;;5.20;99.90;;;;;;5023475;28;20253;-71
2023/10/15 01:11:37;;;;;;;9.87;2.83;;;5.00;99.90;;;;;;5012966;28;20196;-72
2023/10/15 01:14:03;;;;;;;10.27;2.70;;;4.90;99.90;;;;;;5016154;28;20176;-72
2023/10/15 01:16:36;;;;;;;11.27;2.70;;;5.00;99.90;;;;;;5021954;28;20187;-70
2023/10/15 01:21:57;;;;;;;8.60;2.83;;;4.90;99.90;;;;;;5018731;28;20222;-71
2023/10/15 01:24:25;;;;;;;9.60;2.57;;;4.90;99.90;;;;;;5019099;28;20208;-71
2023/10/15 01:26:59;;;;;;;6.73;2.30;;;4.80;99.90;;;;;;5029224;28;20175;-71
2023/10/15 01:29:28;;;;;;;7.17;2.83;;;4.80;99.90;;;;;;5029346;28;20261;-71
2023/10/15 01:32:03;;;;;;;8.13;2.57;;;4.80;99.90;;;;;;5030151;28;20258;-71
2023/10/15 01:34:37;;;;;;;8.60;2.70;;;4.80;99.90;;;;;;5021783;28;20188;-72
2023/10/15 01:39:48;;;;;;;6.83;2.53;;;4.70;99.90;;;;;;5030282;28;20209;-72
2023/10/15 01:45:17;;;;;;;15.23;2.50;;;4.70;99.90;;;;;;5026385;28;20181;-71
2023/10/15 01:53:04;;;;;;;6.53;3.00;;;4.60;99.90;;;;;;5016052;28;20207;-70
2023/10/15 01:55:30;;;;;;;7.93;2.23;;;4.60;99.90;;;;;;5012069;28;20651;-71
2023/10/15 01:58:00;;;;;;;11.90;2.30;;;4.60;99.90;;;;;;5018675;28;20192;-72
2023/10/15 02:00:44;;;;;;;6.03;1.90;;;4.60;99.90;;;;;;5026548;28;20182;-72
2023/10/15 02:03:10;;;;;;;7.57;2.60;;;4.50;99.90;;;;;;5024545;28;20203;-71
2023/10/15 02:05:42;;;;;;;11.17;2.70;;;4.50;99.90;;;;;;5020385;28;20214;-71
2023/10/15 02:08:24;;;;;;;7.77;2.17;;;4.40;99.90;;;;;;5023050;28;20211;-73
2023/10/15 02:10:49;;;;;;;7.93;1.77;;;4.40;99.90;;;;;;5029620;28;20180;-70
2023/10/15 02:13:16;;;;;;;6.00;2.13;;;4.30;99.90;;;;;;5023330;28;20192;-71
2023/10/15 02:15:43;;;;;;;5.77;1.87;;;4.40;99.90;;;;;;5018416;28;20212;-69
2023/10/15 02:18:19;;;;;;;4.27;1.70;;;4.40;99.90;;;;;;5024259;28;20191;-70
2023/10/15 02:20:59;;;;;;;7.47;1.73;;;4.40;99.90;;;;;;5018608;28;20200;-70
2023/10/15 02:23:25;;;;;;;10.53;2.17;;;4.40;99.90;;;;;;5010221;28;20196;-70
2023/10/15 02:26:00;;;;;;;5.60;2.10;;;4.40;99.90;;;;;;5021680;28;20647;-71
2023/10/15 02:28:27;;;;;;;10.40;1.90;;;4.40;99.90;;;;;;5021882;28;20183;-70
2023/10/15 02:31:00;;;;;;;8.20;2.50;;;4.40;99.90;;;;;;5017983;28;20220;-71
2023/10/15 02:33:27;;;;;;;10.70;2.13;;;4.40;99.90;;;;;;5008964;28;20578;-69
2023/10/15 02:35:54;;;;;;;4.97;2.03;;;4.30;99.90;;;;;;5010080;28;20218;-69
2023/10/15 02:38:26;;;;;;;8.97;2.40;;;4.40;99.90;;;;;;5010200;28;20189;-69
2023/10/15 02:41:03;;;;;;;7.00;2.00;;;4.30;99.90;;;;;;5009851;28;20222;-70
2023/10/15 02:43:36;;;;;;;4.83;2.10;;;4.30;99.90;;;;;;5009872;28;20212;-69
2023/10/15 02:48:57;;;;;;;6.73;2.40;;;4.20;99.90;;;;;;5010083;28;20302;-70
2023/10/15 02:51:26;;;;;;;7.33;2.43;;;4.30;99.90;;;;;;5013760;28;20739;-69
2023/10/15 02:53:53;;;;;;;8.00;1.90;;;4.30;99.90;;;;;;5018113;28;20196;-69
2023/10/15 02:56:23;;;;;;;6.43;2.13;;;4.30;99.90;;;;;;5009989;28;20672;-68
2023/10/15 02:58:50;;;;;;;5.47;2.30;;;4.20;99.90;;;;;;5012718;28;20184;-67
2023/10/15 03:01:23;;;;;;;8.13;2.10;;;4.20;99.90;;;;;;5013097;28;20227;-68
2023/10/15 03:03:52;;;;;;;8.53;2.33;;;4.20;99.90;;;;;;5013279;28;20218;-70
2023/10/15 03:06:25;;;;;;;5.27;2.10;;;4.20;99.90;;;;;;5013357;28;20180;-69
2023/10/15 03:08:51;;;;;;;5.60;2.30;;;4.20;99.90;;;;;;5013202;28;20232;-68
2023/10/15 03:11:21;;;;;;;5.23;1.83;;;4.20;99.90;;;;;;5012889;28;20219;-68
2023/10/15 03:13:54;;;;;;;7.40;3.03;;;4.10;99.90;;;;;;5011742;28;20195;-68
2023/10/15 03:16:35;;;;;;;4.97;1.97;;;4.10;99.90;;;;;;5028785;28;20620;-68
2023/10/15 03:19:17;;;;;;;6.80;3.17;;;4.10;99.90;;;;;;5019970;28;20187;-71
2023/10/15 03:21:43;;;;;;;6.47;2.03;;;4.10;99.90;;;;;;5028825;28;20266;-67
2023/10/15 03:24:09;;;;;;;7.17;2.30;;;4.00;99.90;;;;;;5026877;28;20187;-67
2023/10/15 03:26:35;;;;;;;5.17;2.83;;;4.00;99.90;;;;;;5024486;28;20267;-68
2023/10/15 03:29:06;;;;;;;10.13;2.37;;;4.00;99.90;;;;;;5023237;28;20270;-68
2023/10/15 03:31:32;;;;;;;7.40;2.37;;;4.00;99.90;;;;;;5031607;28;20710;-67
2023/10/15 03:39:25;;;;;;;4.13;2.20;;;3.90;99.90;;;;;;5019154;28;20180;-69
2023/10/15 03:42:00;;;;;;;8.83;3.13;;;3.80;99.90;;;;;;5023726;28;20662;-69
2023/10/15 03:44:32;;;;;;;10.73;4.17;;;3.80;99.90;;;;;;5015711;28;20176;-68
2023/10/15 03:47:04;;;;;;;11.17;4.10;;;3.80;99.90;;;;;;5020804;28;20187;-69
2023/10/15 03:49:31;;;;;;;8.50;3.83;;;3.80;99.90;;;;;;5021017;28;20204;-69
2023/10/15 03:51:56;;;;;;;9.07;3.17;;;3.70;99.90;;;;;;5028028;28;20204;-69
2023/10/15 03:54:22;;;;;;;6.17;2.50;;;3.60;99.90;;;;;;5028137;28;20241;-71
2023/10/15 03:56:49;;;;;;;10.60;3.37;;;3.60;99.90;;;;;;5023903;28;20195;-68
2023/10/15 03:59:14;;;;;;;8.77;3.17;;;3.60;99.90;;;;;;5026214;28;20197;-69
2023/10/15 04:01:48;;;;;;;11.57;3.93;;;3.60;99.90;;;;;;5029939;28;20323;-71
2023/10/15 04:04:16;;;;;;;8.77;3.50;;;3.60;99.90;;;;;;5024006;28;20176;-71
2023/10/15 04:06:42;;;;;;;6.87;3.00;;;3.60;99.90;;;;;;5023331;28;20711;-68
2023/10/15 04:11:42;;;;;;;9.90;3.30;;;3.50;99.90;;;;;;5020042;28;20255;-69
2023/10/15 04:14:26;;;;;;;8.13;3.10;;;3.50;99.90;;;;;;5020947;28;20211;-69
2023/10/15 04:16:52;;;;;;;5.97;3.13;;;3.50;99.90;;;;;;5028713;28;20260;-68
2023/10/15 04:19:18;;;;;;;12.00;3.17;;;3.40;99.90;;;;;;5012270;28;20727;-68
2023/10/15 04:21:44;;;;;;;8.47;3.17;;;3.50;99.90;;;;;;5031326;28;20245;-69
2023/10/15 04:24:12;;;;;;;7.47;3.40;;;3.50;99.90;;;;;;5017787;28;20186;-69
2023/10/15 04:26:48;;;;;;;13.17;3.23;;;3.40;99.90;;;;;;5021451;28;20172;-68
2023/10/15 04:29:18;;;;;;;14.07;3.50;;;3.40;99.90;;;;;;5017214;28;20180;-69
2023/10/15 04:31:45;;;;;;;10.83;3.10;;;3.30;99.90;;;;;;5011209;28;20203;-68
2023/10/15 04:34:17;;;;;;;6.57;3.17;;;3.30;99.90;;;;;;5011726;28;20172;-70
2023/10/15 04:36:43;;;;;;;8.67;2.70;;;3.30;99.90;;;;;;5021725;28;20169;-69
2023/10/15 04:39:12;;;;;;;6.23;3.57;;;3.30;99.90;;;;;;5017721;28;20180;-68
2023/10/15 04:41:38;;;;;;;12.20;3.60;;;3.30;99.90;;;;;;5027548;28;20296;-69
2023/10/15 04:44:04;;;;;;;15.00;3.63;;;3.30;99.90;;;;;;5031435;28;20183;-69
2023/10/15 04:46:40;;;;;;;7.87;3.30;;;3.30;99.90;;;;;;5022824;28;20206;-68
2023/10/15 04:49:07;;;;;;;10.37;4.03;;;3.30;99.90;;;;;;5019695;28;20199;-68
2023/10/15 04:51:42;;;;;;;8.63;3.30;;;3.30;99.90;;;;;;5027974;28;20227;-71
2023/10/15 04:54:08;;;;;;;7.70;2.67;;;3.30;99.90;;;;;;5023282;28;20337;-72
2023/10/15 04:56:34;;;;;;;10.23;3.00;;;3.30;99.90;;;;;;5031213;28;20172;-69
2023/10/15 04:58:59;;;;;;;5.63;2.77;;;3.30;99.90;;;;;;5018719;28;20263;-70
2023/10/15 05:01:25;;;;;;;7.40;3.07;;;3.30;99.90;;;;;;5026930;28;20228;-70
2023/10/15 05:03:50;;;;;;;8.23;2.80;;;3.30;99.90;;;;;;5027913;28;20739;-70
2023/10/15 05:06:16;;;;;;;10.40;3.70;;;3.40;99.90;;;;;;5017871;28;20662;-70
2023/10/15 05:08:42;;;;;;;6.10;3.37;;;3.50;99.90;;;;;;5012656;28;20671;-71
2023/10/15 05:11:08;;;;;;;7.07;3.30;;;3.60;99.90;;;;;;5024146;28;20202;-71
2023/10/15 05:13:34;;;;;;;7.37;2.90;;;3.60;99.90;;;;;;5021663;28;20185;-73
2023/10/15 05:16:00;;;;;;;5.80;2.90;;;3.70;99.90;;;;;;5015221;28;20186;-72
2023/10/15 05:18:29;;;;;;;5.87;2.83;;;3.80;99.90;;;;;;5022524;28;20241;-73
2023/10/15 05:20:55;;;;;;;6.23;3.10;;;3.80;99.90;;;;;;5026113;28;20230;-73
2023/10/15 05:23:23;;;;;;;10.17;3.30;;;3.90;99.90;;;;;;5011068;28;20291;-73
2023/10/15 05:25:53;;;;;;;172.60;136.60;;;4.00;99.90;;;;;;5013472;28;20183;-72
2023/10/15 05:28:18;;;;;;;27.60;20.67;;;4.00;99.90;;;;;;5023766;28;20659;-72
2023/10/15 05:30:44;;;;;;;10.97;4.90;;;4.10;99.90;;;;;;5018918;28;20215;-72
2023/10/15 05:33:10;;;;;;;10.90;3.20;;;4.20;99.90;;;;;;5010706;28;20648;-73
2023/10/15 05:35:37;;;;;;;9.83;3.17;;;4.30;99.90;;;;;;5018809;28;20197;-73
2023/10/15 05:38:04;;;;;;;7.10;3.30;;;4.30;99.90;;;;;;5024497;28;20180;-73
2023/10/15 05:40:29;;;;;;;8.53;3.13;;;4.30;99.90;;;;;;5026152;28;20551;-73
2023/10/15 05:42:55;;;;;;;11.20;3.70;;;4.40;99.90;;;;;;5016348;28;20196;-72
2023/10/15 05:45:20;;;;;;;8.60;3.27;;;4.50;99.90;;;;;;5018694;28;20747;-73
2023/10/15 05:47:46;;;;;;;8.83;3.30;;;4.50;99.90;;;;;;5010487;28;20195;-74
2023/10/15 05:50:16;;;;;;;6.40;2.70;;;4.50;99.90;;;;;;5018515;28;20192;-75
2023/10/15 05:52:41;;;;;;;11.53;3.33;;;4.60;99.90;;;;;;5026884;28;20693;-74
2023/10/15 05:55:11;;;;;;;10.27;3.30;;;4.70;99.90;;;;;;5023949;28;20175;-74
2023/10/15 05:57:39;;;;;;;6.30;3.03;;;4.70;99.90;;;;;;5014378;28;20546;-74
2023/10/15 06:00:17;;;;;;;9.73;3.27;;;4.80;99.90;;;;;;5021675;28;20182;-73
2023/10/15 06:02:47;;;;;;;4.10;2.57;;;4.90;99.90;;;;;;5022045;28;20714;-74
2023/10/15 06:05:13;;;;;;;5.20;2.70;;;4.90;99.90;;;;;;5030202;28;20182;-74
2023/10/15 06:07:43;;;;;;;8.10;3.57;;;5.00;99.90;;;;;;5029500;28;20183;-73
2023/10/15 06:10:11;;;;;;;8.20;3.13;;;5.10;99.90;;;;;;5023584;28;20187;-75
2023/10/15 06:12:37;;;;;;;7.17;3.30;;;5.10;99.90;;;;;;5025248;28;20276;-73
2023/10/15 06:15:04;;;;;;;7.10;3.53;;;5.20;99.90;;;;;;5021608;28;20204;-73
2023/10/15 06:17:29;;;;;;;9.27;4.20;;;5.20;99.90;;;;;;5021361;28;20216;-73
2023/10/15 06:19:55;;;;;;;5.90;3.40;;;5.20;99.90;;;;;;5029203;28;20286;-75
2023/10/15 06:22:20;;;;;;;7.13;3.30;;;5.20;99.90;;;;;;5022062;28;20266;-73
2023/10/15 06:24:46;;;;;;;8.00;3.33;;;5.30;99.90;;;;;;5020008;28;20183;-72
2023/10/15 06:27:18;;;;;;;8.20;3.47;;;5.40;99.90;;;;;;5029401;28;20233;-68
2023/10/15 06:29:44;;;;;;;9.37;3.83;;;5.60;99.90;;;;;;5021005;28;20219;-72
2023/10/15 06:32:10;;;;;;;81.57;55.50;;;5.70;99.90;;;;;;5025782;28;20211;-72
2023/10/15 06:34:39;;;;;;;45.60;29.87;;;5.90;99.90;;;;;;5014605;28;20180;-71
2023/10/15 06:37:08;;;;;;;28.40;14.30;;;6.00;99.90;;;;;;5021189;28;20184;-71
2023/10/15 06:39:34;;;;;;;20.27;11.93;;;6.10;99.90;;;;;;5021906;28;20176;-72
2023/10/15 06:42:00;;;;;;;16.27;9.40;;;6.20;99.90;;;;;;5032539;28;20214;-73
2023/10/15 06:44:26;;;;;;;14.93;8.30;;;6.30;99.90;;;;;;5024014;28;20636;-74
2023/10/15 06:46:51;;;;;;;15.67;8.17;;;6.30;99.90;;;;;;5012996;28;20196;-74
2023/10/15 06:49:18;;;;;;;15.80;8.30;;;6.40;99.90;;;;;;5013073;28;20184;-74
2023/10/15 06:51:44;;;;;;;19.23;9.27;;;6.40;99.90;;;;;;5022594;28;20193;-73
2023/10/15 06:54:11;;;;;;;17.33;7.73;;;6.40;99.90;;;;;;5027195;28;20547;-73
2023/10/15 06:56:37;;;;;;;16.53;7.67;;;6.50;99.90;;;;;;5022048;28;20180;-73
2023/10/15 06:59:03;;;;;;;14.87;8.23;;;6.50;99.90;;;;;;5032596;28;20548;-73
2023/10/15 07:01:30;;;;;;;16.00;8.87;;;6.60;99.90;;;;;;5024063;28;20345;-73
2023/10/15 07:03:56;;;;;;;23.97;9.57;;;6.70;99.90;;;;;;5032539;28;20195;-72
2023/10/15 07:06:22;;;;;;;22.90;9.47;;;6.80;99.90;;;;;;5024415;28;20259;-73
2023/10/15 07:08:49;;;;;;;21.20;9.07;;;6.90;99.90;;;;;;5021760;28;20188;-73
2023/10/15 07:11:15;;;;;;;22.40;8.97;;;6.90;99.90;;;;;;5020562;28;20196;-74
2023/10/15 07:13:40;;;;;;;21.67;9.40;;;6.90;99.90;;;;;;5020907;28;20185;-74
2023/10/15 07:16:06;;;;;;;18.33;8.93;;;7.00;99.90;;;;;;5017742;28;20180;-74
2023/10/15 07:18:35;;;;;;;15.00;8.73;;;7.10;99.90;;;;;;5024037;28;20180;-74
2023/10/15 07:21:00;;;;;;;16.23;8.63;;;7.20;99.90;;;;;;5027619;28;20629;-73
2023/10/15 07:23:26;;;;;;;13.43;6.07;;;7.20;99.90;;;;;;5028383;28;20192;-74
2023/10/15 07:25:52;;;;;;;14.80;6.63;;;7.20;99.90;;;;;;5020876;28;20228;-74
2023/10/15 07:28:17;;;;;;;13.80;6.00;;;7.30;99.90;;;;;;5012452;28;20242;-73
2023/10/15 07:30:43;;;;;;;12.53;5.67;;;7.40;99.90;;;;;;5011945;28;20176;-72
2023/10/15 07:33:09;;;;;;;9.67;5.33;;;7.40;99.90;;;;;;5020535;28;20554;-73
2023/10/15 07:35:35;;;;;;;13.03;4.87;;;7.40;99.90;;;;;;5021098;28;20187;-72
2023/10/15 07:38:02;;;;;;;9.73;5.00;;;7.40;99.90;;;;;;5032232;28;20187;-73
2023/10/15 07:40:28;;;;;;;13.60;5.10;;;7.40;99.90;;;;;;5023643;28;20651;-73
2023/10/15 07:42:58;;;;;;;10.37;4.97;;;7.40;99.90;;;;;;5030715;28;20206;-73
2023/10/15 07:45:31;;;;;;;10.20;4.90;;;7.40;99.90;;;;;;5016422;28;20185;-75
2023/10/15 07:48:01;;;;;;;8.53;5.23;;;7.50;99.90;;;;;;5023959;28;20164;-72
2023/10/15 07:50:27;;;;;;;9.13;5.30;;;7.60;99.90;;;;;;5021992;28;20203;-72
2023/10/15 07:52:54;;;;;;;8.17;4.10;;;7.60;99.90;;;;;;5023331;28;20203;-72
2023/10/15 07:55:23;;;;;;;8.27;4.10;;;7.60;99.90;;;;;;5023418;28;20182;-74
2023/10/15 07:57:49;;;;;;;458.80;51.55;;;7.70;99.90;;;;;;5020391;28;20906;-70
2023/10/15 08:00:15;;;;;;;16.07;5.93;;;7.70;99.90;;;;;;5019734;28;20188;-74
2023/10/15 08:02:49;;;;;;;14.03;7.20;;;7.70;99.90;;;;;;5019713;28;20747;-72
2023/10/15 08:05:15;;;;;;;13.53;4.60;;;7.60;99.90;;;;;;5019899;28;20185;-71
2023/10/15 08:07:44;;;;;;;6.40;2.40;;;7.60;99.90;;;;;;5012780;28;20181;-72
2023/10/15 08:10:10;;;;;;;4.50;2.60;;;7.50;99.90;;;;;;5025689;28;20176;-72
2023/10/15 08:12:37;;;;;;;7.43;3.57;;;7.50;99.90;;;;;;5020299;28;20278;-72
2023/10/15 08:15:03;;;;;;;2.50;1.70;;;7.50;99.90;;;;;;5023442;28;20257;-74
2023/10/15 08:17:31;;;;;;;3.60;1.90;;;7.50;99.90;;;;;;5015099;28;20203;-73
2023/10/15 08:19:56;;;;;;;4.10;1.70;;;7.40;99.90;;;;;;5019316;28;20197;-72
2023/10/15 08:22:22;;;;;;;3.50;1.67;;;7.60;99.90;;;;;;5018229;28;20218;-73
2023/10/15 08:24:48;;;;;;;3.13;1.77;;;7.60;99.90;;;;;;5020678;28;20584;-72
2023/10/15 08:27:14;;;;;;;4.27;2.00;;;7.60;99.90;;;;;;5019425;28;20188;-73
2023/10/15 08:29:42;;;;;;;4.63;2.70;;;7.70;99.90;;;;;;5019227;28;20558;-72
2023/10/15 08:32:16;;;;;;;3.53;2.17;;;7.70;99.90;;;;;;5023925;28;20218;-72
2023/10/15 08:34:45;;;;;;;3.67;2.10;;;7.80;99.90;;;;;;5021282;28;20183;-72
2023/10/15 08:37:11;;;;;;;2.60;1.80;;;7.90;99.90;;;;;;5019321;28;20207;-73
2023/10/15 08:39:39;;;;;;;4.47;2.00;;;8.00;99.90;;;;;;5027259;28;20184;-73
2023/10/15 08:42:11;;;;;;;6.30;2.20;;;8.20;99.90;;;;;;5015605;28;20215;-74
2023/10/15 08:44:38;;;;;;;4.07;2.07;;;8.30;99.90;;;;;;5021623;28;20176;-73
2023/10/15 08:47:07;;;;;;;10.10;3.43;;;8.50;99.90;;;;;;5013982;28;20655;-74
2023/10/15 08:49:34;;;;;;;5.03;2.50;;;8.60;99.90;;;;;;5030298;28;20678;-72
2023/10/15 08:52:00;;;;;;;2.60;2.00;;;8.60;99.90;;;;;;5010782;28;20219;-74
2023/10/15 08:54:27;;;;;;;3.40;2.37;;;8.60;99.90;;;;;;5017569;28;20242;-73
2023/10/15 08:56:56;;;;;;;4.03;2.10;;;8.60;99.90;;;;;;5010489;28;20648;-72
2023/10/15 08:59:22;;;;;;;4.50;3.00;;;9.00;99.90;;;;;;5010702;28;20184;-73
2023/10/15 09:01:51;;;;;;;5.17;2.30;;;9.90;99.90;;;;;;5028923;28;20645;-71
2023/10/15 09:04:16;;;;;;;6.30;2.90;;;10.40;99.90;;;;;;5030631;28;20186;-71
2023/10/15 09:06:43;;;;;;;7.07;3.17;;;10.40;99.90;;;;;;5020635;28;20183;-75
2023/10/15 09:09:08;;;;;;;5.53;2.43;;;10.70;99.90;;;;;;5010485;28;20671;-71
2023/10/15 09:11:35;;;;;;;2.83;1.60;;;10.60;99.90;;;;;;5010292;28;20219;-72
2023/10/15 09:14:02;;;;;;;3.10;1.47;;;10.40;99.90;;;;;;5017965;28;20192;-70
2023/10/15 09:16:30;;;;;;;2.00;1.50;;;10.00;99.90;;;;;;5026368;28;20317;-72
2023/10/15 09:18:55;;;;;;;2.20;1.40;;;9.90;99.90;;;;;;5021882;28;20188;-70
2023/10/15 09:21:24;;;;;;;4.33;2.03;;;9.70;99.90;;;;;;5014676;28;20301;-71
2023/10/15 09:23:51;;;;;;;3.30;1.60;;;9.60;99.90;;;;;;5010636;28;20311;-70
2023/10/15 09:26:17;;;;;;;4.57;1.57;;;9.40;99.90;;;;;;5010112;28;20683;-72
2023/10/15 09:28:43;;;;;;;2.50;1.50;;;9.30;99.90;;;;;;5010189;28;20331;-71
2023/10/15 09:31:11;;;;;;;2.37;1.40;;;9.30;99.90;;;;;;5023318;28;20682;-71
2023/10/15 09:33:37;;;;;;;2.83;1.80;;;9.10;99.90;;;;;;5013050;28;20233;-71
2023/10/15 09:36:05;;;;;;;3.47;1.87;;;9.10;99.90;;;;;;5022703;28;20183;-70
2023/10/15 09:38:32;;;;;;;5.80;3.20;;;9.10;99.90;;;;;;5021741;28;20196;-69
2023/10/15 09:40:58;;;;;;;4.60;2.20;;;9.00;99.90;;;;;;5017707;28;20204;-69
2023/10/15 09:43:28;;;;;;;5.23;1.93;;;9.00;99.90;;;;;;5025136;28;20211;-73
2023/10/15 09:45:54;;;;;;;3.33;1.53;;;8.90;99.90;;;;;;5013357;28;20673;-70
2023/10/15 09:48:24;;;;;;;4.80;1.70;;;8.90;99.90;;;;;;5015075;28;20219;-70
2023/10/15 09:50:52;;;;;;;3.47;1.80;;;8.90;99.90;;;;;;5028246;28;20710;-68
2023/10/15 09:53:21;;;;;;;5.33;1.50;;;9.10;99.90;;;;;;5028369;28;20714;-70
2023/10/15 09:55:47;;;;;;;8.83;2.03;;;9.30;99.90;;;;;;5011022;28;20188;-70
2023/10/15 09:58:15;;;;;;;4.27;2.37;;;9.20;99.90;;;;;;5015438;28;20554;-70
2023/10/15 10:03:37;;;;;;;8.77;2.13;;;9.40;99.90;;;;;;5017967;28;20234;-70
2023/10/15 10:06:31;;;;;;;5.57;1.77;;;9.40;99.90;;;;;;5022741;28;20186;-71
2023/10/15 10:09:36;;;;;;;4.30;1.83;;;9.40;99.90;;;;;;5021942;28;20199;-69
2023/10/15 10:12:24;;;;;;;3.53;1.30;;;9.40;99.90;;;;;;5025738;28;20623;-69
2023/10/15 10:15:15;;;;;;;2.87;1.70;;;9.50;99.90;;;;;;5022947;28;20175;-70
2023/10/15 10:17:41;;;;;;;3.60;1.67;;;9.50;99.90;;;;;;5031282;28;20563;-69
2023/10/15 10:20:11;;;;;;;5.33;1.80;;;9.50;99.90;;;;;;5033186;28;20238;-68
2023/10/15 10:22:37;;;;;;;4.67;1.30;;;9.50;99.90;;;;;;5024293;28;20219;-69
2023/10/15 10:25:03;;;;;;;3.77;1.50;;;9.60;99.90;;;;;;5013528;28;20176;-68
2023/10/15 10:27:43;;;;;;;4.00;1.60;;;9.60;99.90;;;;;;5021928;28;20188;-68
2023/10/15 10:30:41;;;;;;;4.23;1.40;;;9.70;99.90;;;;;;5021585;28;20181;-69
2023/10/15 10:33:08;;;;;;;3.87;1.33;;;9.90;99.90;;;;;;5025684;28;20678;-69
2023/10/15 10:35:45;;;;;;;7.87;1.13;;;10.20;99.90;;;;;;5016559;28;20286;-69
2023/10/15 10:38:17;;;;;;;2.20;0.80;;;10.60;99.90;;;;;;5032900;28;20179;-68
2023/10/15 10:40:47;;;;;;;1.60;0.77;;;11.10;99.90;;;;;;5022680;28;20721;-69
2023/10/15 10:43:23;;;;;;;5.83;1.10;;;11.30;99.90;;;;;;5026929;28;20212;-69
2023/10/15 10:45:53;;;;;;;7.93;0.90;;;11.50;99.90;;;;;;5021181;28;20602;-69
2023/10/15 10:48:24;;;;;;;2.63;0.80;;;11.50;99.90;;;;;;5021191;28;20216;-71
2023/10/15 10:51:18;;;;;;;2.53;0.80;;;11.40;99.90;;;;;;5020714;28;20735;-70
2023/10/15 10:53:56;;;;;;;4.93;1.30;;;11.20;99.90;;;;;;5020960;28;20330;-68
2023/10/15 10:56:23;;;;;;;3.47;1.27;;;11.30;99.90;;;;;;5021287;28;20259;-69
2023/10/15 10:58:54;;;;;;;5.93;2.17;;;11.30;99.90;;;;;;5023237;28;20279;-68
2023/10/15 11:01:21;;;;;;;1.93;1.17;;;11.20;99.90;;;;;;5017920;28;20505;-68
2023/10/15 11:03:48;;;;;;;4.90;1.20;;;11.00;99.90;;;;;;5030848;28;20211;-68
2023/10/15 11:06:15;;;;;;;3.47;1.30;;;11.10;99.90;;;;;;5032528;28;20195;-68
2023/10/15 11:08:41;;;;;;;4.00;1.43;;;11.30;99.90;;;;;;5015944;28;20239;-68
2023/10/15 11:11:09;;;;;;;5.60;2.07;;;11.60;99.90;;;;;;5027479;28;20208;-68
2023/10/15 11:13:34;;;;;;;4.77;2.00;;;12.00;99.90;;;;;;5028782;28;20218;-67
2023/10/15 11:16:00;;;;;;;4.10;1.60;;;11.90;99.90;;;;;;5020828;28;20659;-70
2023/10/15 11:18:30;;;;;;;6.33;1.80;;;11.80;99.90;;;;;;5018663;28;20211;-68
2023/10/15 11:20:56;;;;;;;3.00;1.47;;;11.90;99.90;;;;;;5025680;28;20346;-70
2023/10/15 11:23:23;;;;;;;3.70;1.80;;;12.20;99.90;;;;;;5020607;28;20244;-69
2023/10/15 11:25:51;;;;;;;3.13;1.47;;;12.60;99.90;;;;;;5031027;28;20183;-67
2023/10/15 11:28:18;;;;;;;4.77;1.20;;;12.80;99.90;;;;;;5017917;28;20605;-70
2023/10/15 11:30:45;;;;;;;2.50;0.97;;;12.70;99.90;;;;;;5021640;28;20262;-67
2023/10/15 11:33:12;;;;;;;3.57;1.20;;;12.40;99.90;;;;;;5026891;28;20327;-69
2023/10/15 11:35:38;;;;;;;1.97;1.40;;;11.80;99.90;;;;;;5028332;28;20187;-67
2023/10/15 11:38:08;;;;;;;2.67;1.17;;;11.60;99.90;;;;;;5015013;28;20180;-67
2023/10/15 11:40:38;;;;;;;3.53;1.13;;;11.40;99.90;;;;;;5031570;28;20191;-69
2023/10/15 11:43:25;;;;;;;2.80;1.40;;;11.40;99.90;;;;;;5019469;28;20215;-67
2023/10/15 11:45:56;;;;;;;3.50;1.50;;;11.30;99.90;;;;;;5020217;28;20279;-67
2023/10/15 11:48:22;;;;;;;3.10;1.20;;;11.70;99.90;;;;;;5012552;28;20184;-67
2023/10/15 11:50:48;;;;;;;3.80;1.37;;;11.80;99.90;;;;;;5013671;28;20215;-69
2023/10/15 11:53:23;;;;;;;2.23;1.20;;;12.00;99.90;;;;;;5018226;28;20622;-69
2023/10/15 11:55:53;;;;;;;2.90;1.60;;;12.20;99.90;;;;;;5020252;28;20195;-73
2023/10/15 11:58:20;;;;;;;4.37;1.73;;;12.60;99.90;;;;;;5018644;28;20187;-68
2023/10/15 12:00:51;;;;;;;4.33;1.40;;;13.10;99.90;;;;;;5021770;28;20702;-68
2023/10/15 12:03:18;;;;;;;3.53;1.60;;;13.20;99.90;;;;;;5025671;28;20200;-68
2023/10/15 12:05:44;;;;;;;2.80;1.23;;;13.20;99.90;;;;;;5011885;28;20238;-68
2023/10/15 12:08:13;;;;;;;3.90;1.23;;;13.20;99.90;;;;;;5016704;28;20260;-69
2023/10/15 12:10:45;;;;;;;2.97;1.20;;;13.30;99.90;;;;;;5021927;28;20565;-68
2023/10/15 12:13:12;;;;;;;2.97;1.07;;;13.70;99.90;;;;;;5015409;28;20190;-69
2023/10/15 12:15:38;;;;;;;2.63;0.97;;;14.10;99.90;;;;;;5022946;28;20180;-68
2023/10/15 12:18:04;;;;;;;3.50;1.00;;;14.20;99.90;;;;;;5022894;28;20180;-69
2023/10/15 12:20:30;;;;;;;4.10;0.93;;;14.20;99.90;;;;;;5014813;28;20287;-68
2023/10/15 12:22:55;;;;;;;2.23;0.80;;;14.30;99.90;;;;;;5013956;28;20294;-71
2023/10/15 12:25:22;;;;;;;2.17;0.70;;;14.30;99.90;;;;;;5031166;28;20246;-70
2023/10/15 12:27:47;;;;;;;2.10;0.87;;;14.20;99.90;;;;;;5022620;28;20188;-72
2023/10/15 12:30:28;;;;;;;1.73;0.80;;;14.20;99.90;;;;;;5030408;28;20188;-68
2023/10/15 12:32:55;;;;;;;3.60;0.90;;;14.40;99.90;;;;;;5030575;28;20216;-69
2023/10/15 12:35:22;;;;;;;1.90;0.97;;;14.30;99.90;;;;;;5030880;28;20188;-68
2023/10/15 12:38:05;;;;;;;1.93;0.90;;;14.10;99.90;;;;;;5030002;28;20183;-71
2023/10/15 12:40:34;;;;;;;5.23;0.80;;;13.80;99.90;;;;;;5025370;28;20259;-69
2023/10/15 12:43:01;;;;;;;1.17;0.80;;;13.40;99.90;;;;;;5024175;28;20538;-70
2023/10/15 12:45:28;;;;;;;3.10;0.80;;;13.30;99.90;;;;;;5018258;28;20187;-68
2023/10/15 12:47:54;;;;;;;3.27;0.80;;;13.30;99.90;;;;;;5022644;28;20180;-68
2023/10/15 12:50:20;;;;;;;2.53;0.80;;;13.20;99.90;;;;;;5024171;28;20662;-67
2023/10/15 12:52:47;;;;;;;1.43;0.53;;;13.30;99.90;;;;;;5018865;28;20231;-67
2023/10/15 12:55:19;;;;;;;1.30;0.70;;;13.30;99.90;;;;;;5010766;28;20562;-68
2023/10/15 12:57:46;;;;;;;3.33;0.70;;;13.40;99.90;;;;;;5010516;28;20188;-68
2023/10/15 13:00:19;;;;;;;2.40;1.07;;;13.50;99.90;;;;;;5015539;28;20712;-70
2023/10/15 13:02:49;;;;;;;2.47;0.70;;;13.60;99.90;;;;;;5012206;28;20299;-69
2023/10/15 13:05:15;;;;;;;2.73;1.10;;;13.60;99.90;;;;;;5010849;28;20262;-68
2023/10/15 13:07:41;;;;;;;2.10;0.80;;;13.60;99.90;;;;;;5018534;28;20279;-67
2023/10/15 13:10:09;;;;;;;1.57;0.73;;;13.70;99.90;;;;;;5018459;28;20180;-68
2023/10/15 13:12:38;;;;;;;1.73;0.87;;;13.90;99.90;;;;;;5018631;28;20223;-68
2023/10/15 13:15:10;;;;;;;5.23;1.07;;;13.80;99.90;;;;;;5028927;28;20271;-67
2023/10/15 13:17:37;;;;;;;1.10;0.80;;;13.70;99.90;;;;;;5021909;28;20587;-68
2023/10/15 13:20:06;;;;;;;1.53;0.90;;;13.60;99.90;;;;;;5016343;28;20207;-70
2023/10/15 13:22:34;;;;;;;3.73;1.10;;;13.30;99.90;;;;;;5010078;28;20636;-70
2023/10/15 13:25:00;;;;;;;3.67;1.00;;;12.90;99.90;;;;;;5017131;28;20221;-67
2023/10/15 13:27:26;;;;;;;1.53;0.83;;;12.60;99.90;;;;;;5027403;28;20186;-68
2023/10/15 13:29:53;;;;;;;2.10;1.03;;;12.40;99.90;;;;;;5019031;28;20675;-68
2023/10/15 13:32:20;;;;;;;2.73;0.90;;;12.30;99.90;;;;;;5018086;28;20247;-71